createdAt,value
2022-09-21T00:01:42.160Z,101036.00
2022-09-21T00:04:10.936Z,101038.00
2022-09-21T00:06:39.575Z,101028.00
2022-09-21T00:09:09.421Z,101026.00
2022-09-21T00:11:38.711Z,101026.00
2022-09-21T00:14:11.222Z,101039.00
2022-09-21T00:16:41.075Z,101044.00
2022-09-21T00:19:10.026Z,101033.00
2022-09-21T00:21:39.327Z,101032.00
2022-09-21T00:24:08.324Z,101031.00
2022-09-21T00:26:37.298Z,101031.00
2022-09-21T00:29:08.201Z,101030.00
2022-09-21T00:31:37.176Z,101036.00
2022-09-21T00:34:07.934Z,101038.00
2022-09-21T00:36:36.953Z,101038.00
2022-09-21T00:39:05.679Z,101037.00
2022-09-21T00:41:35.195Z,101029.00
2022-09-21T00:44:32.774Z,101040.00
2022-09-21T00:47:05.764Z,101031.00
2022-09-21T00:49:36.027Z,101029.00
2022-09-21T00:52:06.740Z,101033.00
2022-09-21T00:54:40.198Z,101038.00
2022-09-21T00:57:09.629Z,101042.00
2022-09-21T00:59:40.944Z,101037.00
2022-09-21T01:02:10.112Z,101035.00
2022-09-21T01:04:40.113Z,101040.00
2022-09-21T01:07:13.072Z,101031.00
2022-09-21T01:09:43.496Z,101046.00
2022-09-21T01:12:26.932Z,101046.00
2022-09-21T01:15:18.028Z,101035.00
2022-09-21T01:17:52.835Z,101040.00
2022-09-21T01:20:57.703Z,101045.00
2022-09-21T01:23:43.732Z,101055.00
2022-09-21T01:26:22.166Z,101041.00
2022-09-21T01:29:14.586Z,101056.00
2022-09-21T01:31:50.283Z,101058.00
2022-09-21T01:34:27.059Z,101051.00
2022-09-21T01:36:58.570Z,101062.00
2022-09-21T01:39:28.867Z,101057.00
2022-09-21T01:41:58.785Z,101057.00
2022-09-21T01:44:33.395Z,101065.00
2022-09-21T01:47:03.943Z,101057.00
2022-09-21T01:49:37.469Z,101059.00
2022-09-21T01:52:14.133Z,101060.00
2022-09-21T01:54:49.090Z,101067.00
2022-09-21T01:57:25.507Z,101063.00
2022-09-21T01:59:57.589Z,101063.00
2022-09-21T02:02:33.113Z,101062.00
2022-09-21T02:05:03.239Z,101067.00
2022-09-21T02:07:33.497Z,101074.00
2022-09-21T02:10:03.141Z,101075.00
2022-09-21T02:12:33.047Z,101069.00
2022-09-21T02:15:04.234Z,101073.00
2022-09-21T02:17:42.692Z,101069.00
2022-09-21T02:20:20.598Z,101069.00
2022-09-21T02:23:01.216Z,101088.00
2022-09-21T02:25:40.117Z,101084.00
2022-09-21T02:28:15.080Z,101073.00
2022-09-21T02:30:53.083Z,101077.00
2022-09-21T02:33:27.673Z,101083.00
2022-09-21T02:36:01.276Z,101077.00
2022-09-21T02:38:38.318Z,101079.00
2022-09-21T02:41:13.881Z,101082.00
2022-09-21T02:43:48.322Z,101077.00
2022-09-21T02:46:25.371Z,101080.00
2022-09-21T02:48:57.139Z,101079.00
2022-09-21T02:51:31.068Z,101077.00
2022-09-21T02:54:03.491Z,101080.00
2022-09-21T02:56:33.358Z,101087.00
2022-09-21T02:59:05.561Z,101092.00
2022-09-21T03:01:36.192Z,101084.00
2022-09-21T03:04:04.935Z,101089.00
2022-09-21T03:06:33.693Z,101095.00
2022-09-21T03:09:02.524Z,101092.00
2022-09-21T03:11:31.227Z,101100.00
2022-09-21T03:13:59.708Z,101102.00
2022-09-21T03:16:29.201Z,101094.00
2022-09-21T03:18:59.180Z,101100.00
2022-09-21T03:21:35.964Z,101104.00
2022-09-21T03:24:05.181Z,101106.00
2022-09-21T03:26:34.370Z,101102.00
2022-09-21T03:29:03.770Z,101102.00
2022-09-21T03:31:36.073Z,101102.00
2022-09-21T03:34:06.155Z,101095.00
2022-09-21T03:36:34.716Z,101101.00
2022-09-21T03:39:03.289Z,101103.00
2022-09-21T03:41:32.126Z,101108.00
2022-09-21T03:44:00.676Z,101100.00
2022-09-21T03:46:29.433Z,101106.00
2022-09-21T03:48:58.251Z,101107.00
2022-09-21T03:51:28.347Z,101114.00
2022-09-21T03:53:57.081Z,101108.00
2022-09-21T03:56:25.810Z,101115.00
2022-09-21T03:58:54.691Z,101109.00
2022-09-21T04:01:23.405Z,101125.00
2022-09-21T04:03:51.946Z,101115.00
2022-09-21T04:06:20.583Z,101118.00
2022-09-21T04:08:52.500Z,101117.00
2022-09-21T04:11:23.199Z,101115.00
2022-09-21T04:13:53.285Z,101124.00
2022-09-21T04:16:21.978Z,101112.00
2022-09-21T04:18:50.487Z,101123.00
2022-09-21T04:21:19.508Z,101125.00
2022-09-21T04:23:49.803Z,101119.00
2022-09-21T04:26:24.008Z,101124.00
2022-09-21T04:28:53.162Z,101124.00
2022-09-21T04:31:22.560Z,101129.00
2022-09-21T04:33:52.032Z,101125.00
2022-09-21T04:36:21.796Z,101127.00
2022-09-21T04:38:52.435Z,101127.00
2022-09-21T04:41:21.083Z,101134.00
2022-09-21T04:43:50.370Z,101140.00
2022-09-21T04:46:20.560Z,101131.00
2022-09-21T04:48:50.071Z,101136.00
2022-09-21T04:51:18.969Z,101142.00
2022-09-21T04:53:47.737Z,101140.00
2022-09-21T04:56:18.229Z,101142.00
2022-09-21T04:58:46.998Z,101147.00
2022-09-21T05:01:15.705Z,101152.00
2022-09-21T05:03:44.556Z,101150.00
2022-09-21T05:06:13.857Z,101155.00
2022-09-21T05:09:00.263Z,101158.00
2022-09-21T05:11:30.181Z,101163.00
2022-09-21T05:13:59.116Z,101166.00
2022-09-21T05:16:27.764Z,101167.00
2022-09-21T05:18:56.409Z,101169.00
2022-09-21T05:21:25.273Z,101164.00
2022-09-21T05:23:54.035Z,101170.00
2022-09-21T05:26:22.845Z,101180.00
2022-09-21T05:28:53.648Z,101174.00
2022-09-21T05:31:39.279Z,101175.00
2022-09-21T05:34:20.933Z,101187.00
2022-09-21T05:36:55.301Z,101187.00
2022-09-21T05:39:24.598Z,101185.00
2022-09-21T05:41:53.686Z,101197.00
2022-09-21T05:44:24.596Z,101197.00
2022-09-21T05:46:59.920Z,101192.00
2022-09-21T05:49:41.446Z,101197.00
2022-09-21T05:52:17.527Z,101186.00
2022-09-21T05:54:57.138Z,101192.00
2022-09-21T05:57:38.692Z,101194.00
2022-09-21T06:00:17.231Z,101207.00
2022-09-21T06:02:56.640Z,101204.00
2022-09-21T06:05:25.855Z,101208.00
2022-09-21T06:07:54.507Z,101201.00
2022-09-21T06:10:24.273Z,101203.00
2022-09-21T06:12:52.978Z,101197.00
2022-09-21T06:15:23.307Z,101199.00
2022-09-21T06:17:51.986Z,101204.00
2022-09-21T06:20:22.145Z,101201.00
2022-09-21T06:22:52.619Z,101211.00
2022-09-21T06:25:22.050Z,101202.00
2022-09-21T06:27:50.916Z,101212.00
2022-09-21T06:30:19.568Z,101217.00
2022-09-21T06:32:49.642Z,101208.00
2022-09-21T06:35:18.176Z,101211.00
2022-09-21T06:37:46.802Z,101211.00
2022-09-21T06:40:15.596Z,101210.00
2022-09-21T06:42:45.586Z,101206.00
2022-09-21T06:45:14.557Z,101213.00
2022-09-21T06:47:50.027Z,101211.00
2022-09-21T06:50:18.819Z,101213.00
2022-09-21T06:52:49.093Z,101215.00
2022-09-21T06:55:18.134Z,101206.00
2022-09-21T06:57:47.249Z,101213.00
2022-09-21T07:00:16.588Z,101214.00
2022-09-21T07:02:45.766Z,101216.00
2022-09-21T07:05:15.689Z,101223.00
2022-09-21T07:07:44.395Z,101223.00
2022-09-21T07:10:17.199Z,101221.00
2022-09-21T07:12:49.530Z,101230.00
2022-09-21T07:15:19.183Z,101232.00
2022-09-21T07:17:51.812Z,101236.00
2022-09-21T07:20:22.198Z,101239.00
2022-09-21T07:22:50.951Z,101244.00
2022-09-21T07:25:19.636Z,101245.00
2022-09-21T07:27:48.346Z,101253.00
2022-09-21T07:30:16.906Z,101244.00
2022-09-21T07:32:45.901Z,101246.00
2022-09-21T07:35:14.919Z,101250.00
2022-09-21T07:37:44.988Z,101251.00
2022-09-21T07:40:13.681Z,101254.00
2022-09-21T07:42:45.565Z,101258.00
2022-09-21T07:45:14.454Z,101257.00
2022-09-21T07:47:43.051Z,101255.00
2022-09-21T07:50:11.905Z,101256.00
2022-09-21T07:52:40.487Z,101258.00
2022-09-21T07:55:10.709Z,101252.00
2022-09-21T07:57:57.235Z,101256.00
2022-09-21T08:00:25.866Z,101257.00
2022-09-21T08:02:54.761Z,101262.00
2022-09-21T08:05:23.377Z,101250.00
2022-09-21T08:07:53.143Z,101260.00
2022-09-21T08:10:23.608Z,101254.00
2022-09-21T08:12:52.377Z,101257.00
2022-09-21T08:15:46.942Z,101255.00
2022-09-21T08:18:09.957Z,101269.00
2022-09-21T08:20:38.887Z,101255.00
2022-09-21T08:23:07.551Z,101268.00
2022-09-21T08:25:37.599Z,101261.00
2022-09-21T08:28:09.646Z,101258.00
2022-09-21T08:30:38.764Z,101259.00
2022-09-21T08:33:08.302Z,101259.00
2022-09-21T08:35:38.874Z,101273.00
2022-09-21T08:38:11.107Z,101272.00
2022-09-21T08:40:42.372Z,101276.00
2022-09-21T08:43:13.743Z,101271.00
2022-09-21T08:45:45.245Z,101279.00
2022-09-21T08:48:21.929Z,101269.00
2022-09-21T08:50:56.567Z,101274.00
2022-09-21T08:53:31.911Z,101266.00
2022-09-21T08:56:03.093Z,101273.00
2022-09-21T08:58:34.053Z,101279.00
2022-09-21T09:01:21.624Z,101276.00
2022-09-21T09:04:06.925Z,101279.00
2022-09-21T09:06:46.347Z,101275.00
2022-09-21T09:09:49.504Z,101270.00
2022-09-21T09:12:36.073Z,101268.00
2022-09-21T09:15:20.699Z,101268.00
2022-09-21T09:17:56.203Z,101275.00
2022-09-21T09:20:31.791Z,101272.00
2022-09-21T09:23:10.865Z,101276.00
2022-09-21T09:25:42.477Z,101275.00
2022-09-21T09:28:27.715Z,101271.00
2022-09-21T09:31:01.698Z,101259.00
2022-09-21T09:33:43.531Z,101268.00
2022-09-21T09:36:14.152Z,101273.00
2022-09-21T09:38:48.602Z,101268.00
2022-09-21T09:41:30.389Z,101257.00
2022-09-21T09:44:14.731Z,101262.00
2022-09-21T09:46:55.354Z,101262.00
2022-09-21T09:49:37.183Z,101267.00
2022-09-21T09:52:06.815Z,101263.00
2022-09-21T09:54:37.011Z,101263.00
2022-09-21T09:57:07.468Z,101268.00
2022-09-21T09:59:41.721Z,101268.00
2022-09-21T10:02:21.632Z,101262.00
2022-09-21T10:05:06.361Z,101262.00
2022-09-21T10:07:40.339Z,101248.00
2022-09-21T10:10:34.265Z,101254.00
2022-09-21T10:13:14.741Z,101257.00
2022-09-21T10:15:49.316Z,101255.00
2022-09-21T10:18:21.998Z,101253.00
2022-09-21T10:20:59.510Z,101251.00
2022-09-21T10:23:29.760Z,101256.00
2022-09-21T10:26:02.732Z,101242.00
2022-09-21T10:28:32.253Z,101248.00
2022-09-21T10:31:22.564Z,101239.00
2022-09-21T10:34:05.766Z,101235.00
2022-09-21T10:36:36.750Z,101238.00
2022-09-21T10:39:27.414Z,101240.00
2022-09-21T10:42:00.673Z,101250.00
2022-09-21T10:44:35.691Z,101254.00
2022-09-21T10:47:20.181Z,101247.00
2022-09-21T10:49:51.793Z,101250.00
2022-09-21T10:52:23.496Z,101245.00
2022-09-21T10:54:55.783Z,101242.00
2022-09-21T10:57:27.735Z,101252.00
2022-09-21T10:59:57.292Z,101240.00
2022-09-21T11:02:36.021Z,101240.00
2022-09-21T11:05:12.525Z,101239.00
2022-09-21T11:07:46.565Z,101240.00
2022-09-21T11:10:21.425Z,101227.00
2022-09-21T11:13:00.044Z,101222.00
2022-09-21T11:15:50.345Z,101227.00
2022-09-21T11:18:25.319Z,101226.00
2022-09-21T11:20:59.615Z,101219.00
2022-09-21T11:23:45.225Z,101235.00
2022-09-21T11:26:20.863Z,101228.00
2022-09-21T11:28:54.055Z,101228.00
2022-09-21T11:31:58.256Z,101223.00
2022-09-21T11:34:44.976Z,101222.00
2022-09-21T11:37:24.818Z,101210.00
2022-09-21T11:40:09.975Z,101222.00
2022-09-21T11:42:57.537Z,101205.00
2022-09-21T11:45:50.348Z,101210.00
2022-09-21T11:48:30.093Z,101209.00
2022-09-21T11:51:11.985Z,101210.00
2022-09-21T11:53:53.637Z,101206.00
2022-09-21T11:56:34.803Z,101212.00
2022-09-21T11:59:14.603Z,101209.00
2022-09-21T12:02:03.140Z,101210.00
2022-09-21T12:04:42.809Z,101211.00
2022-09-21T12:07:27.666Z,101203.00
2022-09-21T12:10:19.436Z,101191.00
2022-09-21T12:12:55.326Z,101202.00
2022-09-21T12:15:29.035Z,101205.00
2022-09-21T12:18:06.322Z,101199.00
2022-09-21T12:20:46.736Z,101210.00
2022-09-21T12:23:19.984Z,101201.00
2022-09-21T12:25:53.652Z,101204.00
2022-09-21T12:28:26.867Z,101199.00
2022-09-21T12:31:00.820Z,101204.00
2022-09-21T12:33:40.541Z,101192.00
2022-09-21T12:36:17.048Z,101185.00
2022-09-21T12:38:53.006Z,101189.00
2022-09-21T12:41:30.368Z,101197.00
2022-09-21T12:44:03.497Z,101191.00
2022-09-21T12:46:35.920Z,101190.00
2022-09-21T12:49:14.161Z,101183.00
2022-09-21T12:51:46.502Z,101183.00
2022-09-21T12:54:27.734Z,101181.00
2022-09-21T12:57:23.531Z,101181.00
2022-09-21T13:00:02.986Z,101179.00
2022-09-21T13:02:37.017Z,101173.00
2022-09-21T13:05:12.771Z,101172.00
2022-09-21T13:08:02.113Z,101175.00
2022-09-21T13:10:43.755Z,101172.00
2022-09-21T13:13:28.934Z,101173.00
2022-09-21T13:15:59.976Z,101175.00
2022-09-21T13:18:35.810Z,101173.00
2022-09-21T13:21:18.187Z,101170.00
2022-09-21T13:23:54.640Z,101168.00
2022-09-21T13:26:35.751Z,101165.00
2022-09-21T13:29:32.901Z,101170.00
2022-09-21T13:32:04.058Z,101164.00
2022-09-21T13:34:35.551Z,101168.00
2022-09-21T13:37:29.131Z,101164.00
2022-09-21T13:40:41.266Z,101164.00
2022-09-21T13:43:39.567Z,101161.00
2022-09-21T13:46:09.715Z,101159.00
2022-09-21T13:48:38.361Z,101161.00
2022-09-21T13:51:10.993Z,101158.00
2022-09-21T13:53:42.361Z,101153.00
2022-09-21T13:56:19.329Z,101153.00
2022-09-21T13:58:52.367Z,101154.00
2022-09-21T14:01:45.868Z,101149.00
2022-09-21T14:04:23.680Z,101138.00
2022-09-21T14:06:54.201Z,101148.00
2022-09-21T14:09:27.547Z,101144.00
2022-09-21T14:11:58.982Z,101144.00
2022-09-21T14:14:32.830Z,101141.00
2022-09-21T14:17:03.693Z,101139.00
2022-09-21T14:20:08.018Z,101145.00
2022-09-21T14:22:42.075Z,101146.00
2022-09-21T14:25:30.612Z,101145.00
2022-09-21T14:28:06.774Z,101142.00
2022-09-21T14:30:37.993Z,101142.00
2022-09-21T14:33:31.594Z,101144.00
2022-09-21T14:36:03.703Z,101140.00
2022-09-21T14:38:37.864Z,101133.00
2022-09-21T14:41:08.682Z,101131.00
2022-09-21T14:43:39.824Z,101136.00
2022-09-21T14:46:36.158Z,101134.00
2022-09-21T14:49:20.707Z,101132.00
2022-09-21T14:52:20.229Z,101136.00
2022-09-21T14:54:57.380Z,101130.00
2022-09-21T14:57:48.996Z,101132.00
2022-09-21T15:00:26.600Z,101127.00
2022-09-21T15:03:28.042Z,101133.00
2022-09-21T15:06:22.896Z,101124.00
2022-09-21T15:09:22.095Z,101121.00
2022-09-21T15:11:57.500Z,101130.00
2022-09-21T15:14:34.909Z,101125.00
2022-09-21T15:17:24.209Z,101123.00
2022-09-21T15:19:53.028Z,101122.00
2022-09-21T15:22:24.548Z,101121.00
2022-09-21T15:24:54.179Z,101106.00
2022-09-21T15:27:25.125Z,101118.00
2022-09-21T15:29:55.468Z,101115.00
2022-09-21T15:32:34.200Z,101116.00
2022-09-21T15:35:05.180Z,101106.00
2022-09-21T15:37:39.583Z,101107.00
2022-09-21T15:40:20.467Z,101107.00
2022-09-21T15:43:04.575Z,101106.00
2022-09-21T15:45:38.085Z,101112.00
2022-09-21T15:48:13.568Z,101109.00
2022-09-21T15:50:43.594Z,101114.00
2022-09-21T15:53:23.169Z,101107.00
2022-09-21T15:55:52.530Z,101112.00
2022-09-21T15:58:35.775Z,101118.00
2022-09-21T16:01:10.256Z,101116.00
2022-09-21T16:03:39.983Z,101115.00
2022-09-21T16:06:27.496Z,101119.00
2022-09-21T16:08:57.654Z,101109.00
2022-09-21T16:11:37.751Z,101114.00
2022-09-21T16:14:29.284Z,101108.00
2022-09-21T16:17:21.200Z,101115.00
2022-09-21T16:20:19.529Z,101116.00
2022-09-21T16:22:49.468Z,101119.00
2022-09-21T16:25:32.516Z,101125.00
2022-09-21T16:28:03.709Z,101127.00
2022-09-21T16:30:47.322Z,101119.00
2022-09-21T16:33:39.871Z,101120.00
2022-09-21T16:36:40.667Z,101125.00
2022-09-21T16:39:15.584Z,101123.00
2022-09-21T16:41:52.077Z,101120.00
2022-09-21T16:44:22.858Z,101124.00
2022-09-21T16:46:55.490Z,101121.00
2022-09-21T16:49:30.153Z,101123.00
2022-09-21T16:51:59.798Z,101124.00
2022-09-21T16:54:28.890Z,101123.00
2022-09-21T16:57:00.914Z,101125.00
2022-09-21T16:59:30.110Z,101129.00
2022-09-21T17:02:00.437Z,101125.00
2022-09-21T17:04:31.957Z,101129.00
2022-09-21T17:07:00.841Z,101129.00
2022-09-21T17:09:33.243Z,101127.00
2022-09-21T17:12:04.457Z,101119.00
2022-09-21T17:14:35.506Z,101127.00
2022-09-21T17:17:08.454Z,101124.00
2022-09-21T17:19:37.630Z,101121.00
2022-09-21T17:22:07.146Z,101121.00
2022-09-21T17:24:50.452Z,101119.00
2022-09-21T17:27:23.023Z,101122.00
2022-09-21T17:29:54.026Z,101129.00
2022-09-21T17:32:24.705Z,101135.00
2022-09-21T17:34:59.729Z,101128.00
2022-09-21T17:37:28.950Z,101129.00
2022-09-21T17:39:57.804Z,101129.00
2022-09-21T17:42:29.721Z,101139.00
2022-09-21T17:45:12.455Z,101135.00
2022-09-21T17:47:42.126Z,101126.00
2022-09-21T17:50:24.120Z,101140.00
2022-09-21T17:53:10.786Z,101137.00
2022-09-21T17:55:40.638Z,101143.00
2022-09-21T17:58:37.524Z,101136.00
2022-09-21T18:01:08.675Z,101149.00
2022-09-21T18:03:41.141Z,101143.00
2022-09-21T18:06:10.944Z,101149.00
2022-09-21T18:08:40.696Z,101148.00
2022-09-21T18:11:29.412Z,101152.00
2022-09-21T18:14:09.957Z,101158.00
2022-09-21T18:16:51.496Z,101162.00
2022-09-21T18:19:35.306Z,101155.00
2022-09-21T18:22:14.061Z,101154.00
2022-09-21T18:24:43.502Z,101158.00
2022-09-21T18:27:13.306Z,101153.00
2022-09-21T18:29:44.026Z,101153.00
2022-09-21T18:32:41.120Z,101153.00
2022-09-21T18:35:19.469Z,101161.00
2022-09-21T18:38:05.591Z,101163.00
2022-09-21T18:40:41.186Z,101158.00
2022-09-21T18:43:26.621Z,101157.00
2022-09-21T18:46:02.557Z,101157.00
2022-09-21T18:48:51.184Z,101164.00
2022-09-21T18:51:27.279Z,101176.00
2022-09-21T18:53:57.297Z,101171.00
2022-09-21T18:56:27.207Z,101166.00
2022-09-21T18:58:58.133Z,101162.00
2022-09-21T19:01:32.976Z,101171.00
2022-09-21T19:04:02.378Z,101159.00
2022-09-21T19:06:42.601Z,101164.00
2022-09-21T19:09:34.215Z,101169.00
2022-09-21T19:12:14.340Z,101168.00
2022-09-21T19:14:54.881Z,101163.00
2022-09-21T19:17:44.166Z,101153.00
2022-09-21T19:20:38.822Z,101157.00
2022-09-21T19:23:17.485Z,101160.00
2022-09-21T19:25:50.105Z,101157.00
2022-09-21T19:28:40.439Z,101156.00
2022-09-21T19:31:13.533Z,101163.00
2022-09-21T19:33:50.530Z,101159.00
2022-09-21T19:36:20.706Z,101157.00
2022-09-21T19:38:49.852Z,101154.00
2022-09-21T19:41:38.752Z,101158.00
2022-09-21T19:44:29.795Z,101165.00
2022-09-21T19:47:09.457Z,101165.00
2022-09-21T19:49:47.324Z,101163.00
2022-09-21T19:52:20.096Z,101160.00
2022-09-21T19:55:06.778Z,101167.00
2022-09-21T19:57:53.339Z,101164.00
2022-09-21T20:00:25.998Z,101162.00
2022-09-21T20:03:07.452Z,101160.00
2022-09-21T20:05:54.958Z,101159.00
2022-09-21T20:08:28.847Z,101156.00
2022-09-21T20:11:07.682Z,101153.00
2022-09-21T20:14:08.225Z,101150.00
2022-09-21T20:16:47.641Z,101154.00
2022-09-21T20:19:27.422Z,101152.00
2022-09-21T20:22:09.169Z,101152.00
2022-09-21T20:24:46.612Z,101161.00
2022-09-21T20:27:26.527Z,101148.00
2022-09-21T20:29:55.206Z,101153.00
2022-09-21T20:32:24.445Z,101156.00
2022-09-21T20:34:53.037Z,101155.00
2022-09-21T20:37:24.711Z,101157.00
2022-09-21T20:39:53.261Z,101155.00
2022-09-21T20:42:28.626Z,101154.00
2022-09-21T20:44:57.530Z,101159.00
2022-09-21T20:47:28.941Z,101159.00
2022-09-21T20:49:57.575Z,101151.00
2022-09-21T20:52:28.033Z,101146.00
2022-09-21T20:54:56.581Z,101145.00
2022-09-21T20:57:25.508Z,101152.00
2022-09-21T20:59:54.045Z,101145.00
2022-09-21T21:02:22.575Z,101155.00
2022-09-21T21:04:51.098Z,101142.00
2022-09-21T21:07:19.696Z,101142.00
2022-09-21T21:09:49.680Z,101154.00
2022-09-21T21:12:18.626Z,101147.00
2022-09-21T21:14:47.462Z,101142.00
2022-09-21T21:17:16.173Z,101145.00
2022-09-21T21:19:45.469Z,101141.00
2022-09-21T21:22:15.698Z,101150.00
2022-09-21T21:24:44.391Z,101144.00
2022-09-21T21:27:16.598Z,101152.00
2022-09-21T21:29:46.250Z,101153.00
2022-09-21T21:32:15.558Z,101148.00
2022-09-21T21:34:44.049Z,101136.00
2022-09-21T21:37:13.017Z,101149.00
2022-09-21T21:39:41.766Z,101144.00
2022-09-21T21:42:10.929Z,101148.00
2022-09-21T21:44:40.826Z,101141.00
2022-09-21T21:47:35.095Z,101136.00
2022-09-21T21:49:59.717Z,101136.00
2022-09-21T21:52:28.201Z,101140.00
2022-09-21T21:54:56.806Z,101140.00
2022-09-21T21:57:25.298Z,101135.00
2022-09-21T21:59:55.134Z,101146.00
2022-09-21T22:02:23.893Z,101133.00
2022-09-21T22:04:52.891Z,101135.00
2022-09-21T22:07:21.406Z,101135.00
2022-09-21T22:09:49.870Z,101132.00
2022-09-21T22:12:18.345Z,101120.00
2022-09-21T22:14:47.712Z,101120.00
2022-09-21T22:17:17.528Z,101123.00
2022-09-21T22:19:46.022Z,101125.00
2022-09-21T22:22:14.502Z,101129.00
2022-09-21T22:24:43.060Z,101125.00
2022-09-21T22:27:11.528Z,101123.00
2022-09-21T22:29:40.643Z,101126.00
2022-09-21T22:32:09.137Z,101130.00
2022-09-21T22:34:38.986Z,101127.00
2022-09-21T22:37:07.572Z,101119.00
2022-09-21T22:39:36.300Z,101125.00
2022-09-21T22:42:05.401Z,101117.00
2022-09-21T22:44:33.843Z,101120.00
2022-09-21T22:47:02.319Z,101125.00
2022-09-21T22:49:30.829Z,101121.00
2022-09-21T22:52:00.661Z,101120.00
2022-09-21T22:54:29.176Z,101124.00
2022-09-21T22:56:57.620Z,101114.00
2022-09-21T22:59:26.070Z,101112.00
2022-09-21T23:01:56.385Z,101124.00
2022-09-21T23:04:24.929Z,101122.00
2022-09-21T23:06:53.350Z,101115.00
2022-09-21T23:09:23.399Z,101119.00
2022-09-21T23:11:53.793Z,101120.00
2022-09-21T23:14:24.010Z,101129.00
2022-09-21T23:16:53.144Z,101121.00
2022-09-21T23:19:21.613Z,101116.00
2022-09-21T23:21:51.318Z,101115.00
2022-09-21T23:24:20.628Z,101115.00
2022-09-21T23:26:51.596Z,101120.00
2022-09-21T23:29:20.149Z,101126.00
2022-09-21T23:31:48.635Z,101135.00
2022-09-21T23:34:17.664Z,101129.00
2022-09-21T23:36:47.001Z,101134.00
2022-09-21T23:39:16.288Z,101131.00
2022-09-21T23:41:44.805Z,101128.00
2022-09-21T23:44:14.610Z,101128.00
2022-09-21T23:46:43.611Z,101128.00
2022-09-21T23:49:12.131Z,101116.00
2022-09-21T23:51:41.155Z,101127.00
2022-09-21T23:54:09.843Z,101117.00
2022-09-21T23:56:38.742Z,101118.00
2022-09-21T23:59:07.545Z,101116.00
